Time;durP1;ratioP1;P1;durP2;ratioP2;P2;SDS_P1;SDS_P2;PMS_P1;PMS_P2;Temp;Humidity;BMP_temperature;BMP_pressure;BME280_temperature;BME280_humidity;BME280_pressure;Samples;Min_cycle;Max_cycle;Signal;HPM_P1;HPM_P2
2023/05/04 00:00:50;;;;;;;2.80;1.87;;;14.70;93.30;;;;;;5067481;28;20095;-75
2023/05/04 00:03:16;;;;;;;3.40;1.80;;;14.60;93.60;;;;;;5067472;28;20103;-75
2023/05/04 00:05:41;;;;;;;4.30;1.87;;;14.60;93.60;;;;;;5068073;28;20519;-75
2023/05/04 00:08:07;;;;;;;7.30;2.13;;;14.60;93.20;;;;;;5043929;28;20029;-75
2023/05/04 00:10:33;;;;;;;3.22;1.80;;;14.70;93.50;;;;;;5067912;28;20036;-74
2023/05/04 00:12:58;;;;;;;4.37;1.60;;;14.80;92.70;;;;;;5049208;28;20049;-76
2023/05/04 00:15:24;;;;;;;4.23;1.43;;;14.80;92.80;;;;;;5049643;28;20732;-75
2023/05/04 00:17:50;;;;;;;2.28;1.80;;;14.70;92.80;;;;;;5067314;28;20040;-76
2023/05/04 00:20:16;;;;;;;2.50;1.70;;;14.70;92.60;;;;;;5067569;28;20150;-75
2023/05/04 00:22:41;;;;;;;4.03;1.90;;;14.70;92.80;;;;;;5067344;28;20058;-75
2023/05/04 00:25:07;;;;;;;2.40;2.00;;;14.90;92.00;;;;;;5067847;28;20355;-76
2023/05/04 00:27:34;;;;;;;5.87;1.70;;;15.00;91.80;;;;;;5067773;28;20040;-75
2023/05/04 00:30:00;;;;;;;2.08;1.88;;;14.80;92.30;;;;;;5067806;28;20279;-75
2023/05/04 00:32:26;;;;;;;2.20;1.65;;;14.90;91.60;;;;;;5067408;28;20523;-75
2023/05/04 00:34:51;;;;;;;6.85;1.95;;;14.80;91.90;;;;;;5067741;28;20040;-75
2023/05/04 00:37:17;;;;;;;5.03;1.90;;;14.80;91.90;;;;;;5067943;28;20113;-75
2023/05/04 00:39:43;;;;;;;4.63;2.10;;;14.70;92.10;;;;;;5061245;28;20039;-76
2023/05/04 00:42:08;;;;;;;4.20;1.60;;;14.90;91.30;;;;;;5050129;28;20802;-75
2023/05/04 00:44:34;;;;;;;2.63;1.80;;;14.90;91.20;;;;;;5067568;28;20033;-76
2023/05/04 00:47:02;;;;;;;2.10;1.70;;;14.70;91.50;;;;;;5066497;28;20417;-74
2023/05/04 00:49:27;;;;;;;5.93;1.80;;;14.70;92.10;;;;;;5066872;28;20055;-77
2023/05/04 00:51:55;;;;;;;4.35;1.85;;;14.80;91.20;;;;;;5066847;28;20523;-76
2023/05/04 00:54:23;;;;;;;4.25;2.00;;;14.70;91.20;;;;;;5066394;28;20036;-75
2023/05/04 00:56:48;;;;;;;10.85;2.38;;;14.80;91.20;;;;;;5067246;28;20047;-75
2023/05/04 00:59:14;;;;;;;4.50;2.10;;;14.70;91.30;;;;;;5046128;28;20025;-75
2023/05/04 01:01:40;;;;;;;7.60;1.90;;;14.60;91.30;;;;;;5066909;28;20800;-75
2023/05/04 01:04:07;;;;;;;2.45;1.70;;;14.70;91.30;;;;;;5078355;28;20099;-74
2023/05/04 01:06:56;;;;;;;3.53;1.70;;;14.60;91.80;;;;;;5088822;28;20033;-74
2023/05/04 01:09:36;;;;;;;2.25;1.73;;;14.40;92.00;;;;;;5076670;28;20023;-75
2023/05/04 01:12:15;;;;;;;2.28;1.45;;;14.30;92.70;;;;;;5068301;28;20040;-75
2023/05/04 01:14:42;;;;;;;3.75;1.83;;;14.20;92.60;;;;;;5063609;28;20020;-75
2023/05/04 01:17:08;;;;;;;3.95;2.03;;;14.40;92.50;;;;;;5065816;28;20025;-75
2023/05/04 01:19:34;;;;;;;2.50;1.80;;;14.40;91.90;;;;;;5048549;28;20054;-76
2023/05/04 01:21:59;;;;;;;2.90;1.50;;;14.40;92.10;;;;;;5066487;28;20033;-76
2023/05/04 01:24:26;;;;;;;2.57;1.80;;;14.30;92.80;;;;;;5069125;28;20420;-76
2023/05/04 01:26:57;;;;;;;3.05;1.80;;;14.30;92.50;;;;;;5069697;28;20033;-76
2023/05/04 01:29:37;;;;;;;6.97;1.60;;;14.40;92.10;;;;;;5069733;28;20070;-74
2023/05/04 01:32:03;;;;;;;2.55;1.70;;;14.60;91.40;;;;;;5069746;28;20139;-76
2023/05/04 01:34:29;;;;;;;3.33;1.77;;;14.50;91.80;;;;;;5070414;28;20033;-75
2023/05/04 01:36:55;;;;;;;2.40;1.50;;;14.30;92.20;;;;;;5070149;28;20032;-75
2023/05/04 01:39:21;;;;;;;2.33;1.67;;;14.20;92.80;;;;;;5069618;28;20058;-76
2023/05/04 01:41:46;;;;;;;2.40;1.80;;;14.20;93.00;;;;;;5070051;28;20496;-76
2023/05/04 01:44:13;;;;;;;2.77;1.60;;;14.20;92.80;;;;;;5070170;28;20031;-75
2023/05/04 01:46:39;;;;;;;2.47;2.00;;;14.20;92.60;;;;;;5069663;28;20024;-74
2023/05/04 01:49:05;;;;;;;1.50;1.40;;;14.10;93.00;;;;;;5070386;28;20074;-75
2023/05/04 01:51:31;;;;;;;;;;;14.00;93.90;;;;;;5070386;28;20055;-74
2023/05/04 01:53:56;;;;;;;2.30;1.50;;;13.90;93.60;;;;;;5067175;28;20027;-75
2023/05/04 01:56:22;;;;;;;2.50;1.50;;;13.80;94.30;;;;;;5069260;28;20029;-76
2023/05/04 01:58:48;;;;;;;2.87;1.83;;;13.80;94.60;;;;;;5069166;28;20020;-76
2023/05/04 02:01:14;;;;;;;5.10;1.60;;;13.70;94.90;;;;;;5069431;28;20033;-74
2023/05/04 02:03:39;;;;;;;4.93;2.15;;;13.50;95.40;;;;;;5069468;28;20499;-75
2023/05/04 02:06:05;;;;;;;3.50;1.90;;;13.50;96.60;;;;;;5068808;28;20039;-76
2023/05/04 02:08:32;;;;;;;8.75;1.83;;;13.40;96.30;;;;;;5052846;28;20061;-75
2023/05/04 02:10:57;;;;;;;2.92;1.75;;;13.60;95.70;;;;;;5068927;28;20025;-76
2023/05/04 02:13:23;;;;;;;2.90;1.70;;;13.70;95.30;;;;;;5069295;28;20028;-75
2023/05/04 02:15:48;;;;;;;2.53;2.00;;;13.90;94.50;;;;;;5068933;28;20025;-75
2023/05/04 02:18:14;;;;;;;1.77;1.43;;;13.90;94.70;;;;;;5051864;28;20523;-76
2023/05/04 02:20:40;;;;;;;3.33;1.73;;;13.80;95.40;;;;;;5051225;28;20052;-75
2023/05/04 02:23:05;;;;;;;3.57;1.70;;;13.80;95.20;;;;;;5068968;28;20063;-75
2023/05/04 02:25:31;;;;;;;2.97;1.60;;;13.60;95.60;;;;;;5068388;28;20547;-74
2023/05/04 02:27:57;;;;;;;3.63;1.83;;;13.70;95.20;;;;;;5067734;28;20040;-76
2023/05/04 02:30:22;;;;;;;2.67;2.40;;;13.80;95.80;;;;;;5068263;28;20069;-74
2023/05/04 02:32:48;;;;;;;4.37;1.70;;;13.80;95.30;;;;;;5068828;28;20036;-75
2023/05/04 02:35:14;;;;;;;1.67;1.50;;;13.80;95.00;;;;;;5068415;28;20047;-75
2023/05/04 02:37:39;;;;;;;4.73;2.10;;;13.70;95.10;;;;;;5068511;28;20028;-75
2023/05/04 02:40:05;;;;;;;1.67;1.57;;;13.70;95.50;;;;;;5068151;28;20158;-74
2023/05/04 02:42:31;;;;;;;2.92;1.63;;;13.80;94.90;;;;;;5068584;28;20516;-74
2023/05/04 02:44:56;;;;;;;6.60;2.40;;;13.70;95.10;;;;;;5068410;28;20029;-75
2023/05/04 02:47:22;;;;;;;4.20;1.83;;;13.80;94.60;;;;;;5068647;28;20024;-75
2023/05/04 02:49:48;;;;;;;3.47;1.80;;;13.80;95.00;;;;;;5069030;28;20011;-74
2023/05/04 02:52:13;;;;;;;5.70;2.00;;;13.60;95.40;;;;;;5089357;28;20044;-74
2023/05/04 02:54:39;;;;;;;5.23;1.80;;;13.50;95.30;;;;;;5076542;28;20149;-73
2023/05/04 02:57:05;;;;;;;6.57;2.10;;;13.50;95.80;;;;;;5070552;28;20620;-75
2023/05/04 02:59:31;;;;;;;;;;;13.40;95.90;;;;;;5067380;28;20108;-75
2023/05/04 03:01:57;;;;;;;10.20;2.40;;;13.40;96.40;;;;;;5062877;28;20007;-74
2023/05/04 03:04:22;;;;;;;3.30;2.07;;;13.30;96.40;;;;;;5068728;28;20024;-75
2023/05/04 03:06:48;;;;;;;3.13;1.83;;;13.20;96.60;;;;;;5068599;28;20332;-74
2023/05/04 03:09:13;;;;;;;4.40;1.87;;;13.10;96.80;;;;;;5068515;28;20070;-75
2023/05/04 03:11:39;;;;;;;4.20;2.50;;;13.10;97.00;;;;;;5068457;28;20396;-76
2023/05/04 03:14:05;;;;;;;3.27;2.50;;;13.00;97.10;;;;;;5047148;28;20029;-75
2023/05/04 03:16:31;;;;;;;3.85;2.22;;;13.00;97.20;;;;;;5068073;28;20111;-74
2023/05/04 03:18:57;;;;;;;5.20;2.50;;;12.80;97.70;;;;;;5065621;28;20123;-75
2023/05/04 03:21:22;;;;;;;5.32;2.50;;;12.90;97.50;;;;;;5065729;28;20036;-75
2023/05/04 03:23:48;;;;;;;7.47;2.40;;;12.80;97.90;;;;;;5065498;28;20482;-74
2023/05/04 03:26:14;;;;;;;7.07;2.70;;;12.80;97.90;;;;;;5065451;28;20047;-74
2023/05/04 03:28:39;;;;;;;8.37;2.73;;;12.80;98.00;;;;;;5065903;28;20063;-74
2023/05/04 03:31:05;;;;;;;2.67;2.07;;;12.80;98.10;;;;;;5066528;28;20032;-75
2023/05/04 03:33:31;;;;;;;5.10;2.67;;;12.70;98.60;;;;;;5066695;28;20052;-74
2023/05/04 03:35:56;;;;;;;3.07;2.30;;;12.70;98.50;;;;;;5064770;28;20068;-75
2023/05/04 03:38:22;;;;;;;4.70;2.40;;;12.60;98.90;;;;;;5066149;28;20055;-74
2023/05/04 03:40:47;;;;;;;3.20;2.37;;;12.70;98.50;;;;;;5066613;28;20480;-75
2023/05/04 03:43:13;;;;;;;6.40;2.33;;;12.70;98.20;;;;;;5066084;28;20039;-74
2023/05/04 03:45:38;;;;;;;4.40;2.30;;;12.70;98.50;;;;;;5065881;28;20086;-74
2023/05/04 03:48:04;;;;;;;2.97;2.30;;;12.60;98.60;;;;;;5066314;28;20111;-72
2023/05/04 03:50:30;;;;;;;8.70;2.67;;;12.60;98.90;;;;;;5065768;28;20048;-73
2023/05/04 03:52:56;;;;;;;6.88;3.05;;;12.50;99.00;;;;;;5065621;28;20041;-73
2023/05/04 03:55:22;;;;;;;3.10;2.60;;;12.50;99.10;;;;;;5066798;28;20035;-73
2023/05/04 03:57:48;;;;;;;4.60;2.57;;;12.50;99.30;;;;;;5065519;28;20470;-72
2023/05/04 04:00:14;;;;;;;6.20;2.53;;;12.40;99.70;;;;;;5066673;28;20400;-74
2023/05/04 04:02:40;;;;;;;5.72;2.50;;;12.40;99.10;;;;;;5066059;28;20033;-74
2023/05/04 04:05:06;;;;;;;7.40;2.67;;;12.30;99.70;;;;;;5064671;28;20042;-74
2023/05/04 04:07:32;;;;;;;3.78;2.67;;;12.40;99.40;;;;;;5065812;28;20275;-74
2023/05/04 04:09:58;;;;;;;5.00;2.97;;;12.40;99.40;;;;;;5065241;28;20059;-73
2023/05/04 04:12:23;;;;;;;4.03;2.53;;;12.50;99.40;;;;;;5065508;28;20049;-76
2023/05/04 04:14:51;;;;;;;5.10;2.63;;;12.50;99.40;;;;;;5065897;28;20282;-74
2023/05/04 04:17:17;;;;;;;4.32;2.65;;;12.50;99.20;;;;;;5065900;28;20044;-74
2023/05/04 04:19:43;;;;;;;6.40;2.40;;;12.50;99.50;;;;;;5062419;28;20025;-74
2023/05/04 04:22:08;;;;;;;9.48;4.07;;;12.50;99.30;;;;;;5065514;28;20491;-74
2023/05/04 04:24:34;;;;;;;3.70;2.67;;;12.50;99.60;;;;;;5064898;28;20017;-74
2023/05/04 04:27:00;;;;;;;4.33;2.60;;;12.50;99.30;;;;;;5066088;28;20502;-73
2023/05/04 04:29:26;;;;;;;3.50;2.35;;;12.50;99.70;;;;;;5047372;28;20033;-72
2023/05/04 04:31:51;;;;;;;6.17;2.97;;;12.40;99.70;;;;;;5065455;28;20097;-73
2023/05/04 04:34:17;;;;;;;4.30;2.60;;;12.40;99.90;;;;;;5066874;28;20052;-74
2023/05/04 04:36:43;;;;;;;3.87;2.60;;;12.40;99.80;;;;;;5080897;28;20122;-73
2023/05/04 04:39:09;;;;;;;3.72;2.72;;;12.40;99.50;;;;;;5086769;28;20020;-73
2023/05/04 04:41:35;;;;;;;8.05;2.80;;;12.40;99.80;;;;;;5077502;28;20150;-74
2023/05/04 04:44:01;;;;;;;8.47;2.60;;;12.40;99.90;;;;;;5067978;28;20139;-74
2023/05/04 04:46:27;;;;;;;5.10;3.13;;;12.40;99.90;;;;;;5065966;28;20044;-72
2023/05/04 04:48:53;;;;;;;5.03;2.97;;;12.30;99.90;;;;;;5066141;28;20037;-74
2023/05/04 04:51:19;;;;;;;6.82;3.25;;;12.30;99.90;;;;;;5065878;28;20451;-74
2023/05/04 04:53:44;;;;;;;6.15;2.95;;;12.30;99.90;;;;;;5066007;28;20028;-74
2023/05/04 04:56:10;;;;;;;8.13;2.93;;;12.30;99.90;;;;;;5065514;28;20033;-74
2023/05/04 04:58:36;;;;;;;6.63;2.53;;;12.20;99.90;;;;;;5066490;28;20025;-74
2023/05/04 05:01:04;;;;;;;15.20;3.37;;;12.20;99.90;;;;;;5069123;28;20123;-73
2023/05/04 05:03:30;;;;;;;8.35;2.65;;;12.10;99.90;;;;;;5068630;28;20523;-73
2023/05/04 05:05:56;;;;;;;9.70;3.30;;;12.30;99.90;;;;;;5044156;28;20033;-74
2023/05/04 05:08:22;;;;;;;10.40;3.27;;;12.50;99.90;;;;;;5069972;28;20437;-74
2023/05/04 05:10:48;;;;;;;8.90;3.40;;;13.80;99.40;;;;;;5068342;28;20103;-75
2023/05/04 05:13:13;;;;;;;15.73;3.13;;;14.20;97.00;;;;;;5050937;28;20147;-74
2023/05/04 05:15:39;;;;;;;19.87;2.80;;;14.30;97.00;;;;;;5069577;28;20528;-74
2023/05/04 05:18:05;;;;;;;14.33;3.07;;;15.10;95.50;;;;;;5066216;28;20047;-75
2023/05/04 05:20:32;;;;;;;6.95;2.90;;;14.60;95.20;;;;;;5067329;28;20705;-75
2023/05/04 05:22:57;;;;;;;13.10;4.78;;;14.30;95.80;;;;;;5068381;28;20025;-75
2023/05/04 05:25:23;;;;;;;15.33;3.13;;;14.50;96.10;;;;;;5066255;28;20044;-75
2023/05/04 05:27:48;;;;;;;16.70;3.57;;;14.70;95.20;;;;;;5068375;28;20034;-74
2023/05/04 05:30:14;;;;;;;4.77;2.80;;;14.40;95.30;;;;;;5069552;28;20044;-76
2023/05/04 05:32:40;;;;;;;13.63;2.90;;;14.40;96.20;;;;;;5066857;28;20040;-78
2023/05/04 05:35:06;;;;;;;14.57;3.00;;;15.00;95.90;;;;;;5068530;28;20496;-72
2023/05/04 05:37:32;;;;;;;11.23;2.90;;;16.10;93.20;;;;;;5068540;28;20442;-75
2023/05/04 05:39:58;;;;;;;10.83;2.53;;;16.00;92.80;;;;;;5068483;28;20040;-73
2023/05/04 05:42:23;;;;;;;15.33;2.67;;;15.80;92.90;;;;;;5068601;28;20492;-74
2023/05/04 05:44:49;;;;;;;8.40;3.10;;;16.60;92.00;;;;;;5066805;28;20286;-77
2023/05/04 05:47:15;;;;;;;10.82;3.00;;;17.70;89.90;;;;;;5064853;28;20062;-74
2023/05/04 05:49:41;;;;;;;6.45;2.47;;;17.80;90.20;;;;;;5064389;28;20037;-76
2023/05/04 05:52:07;;;;;;;15.80;2.57;;;18.30;87.90;;;;;;5068121;28;20040;-73
2023/05/04 05:54:34;;;;;;;6.93;2.23;;;17.80;87.70;;;;;;5068466;28;20035;-74
2023/05/04 05:57:00;;;;;;;5.38;2.55;;;17.80;87.50;;;;;;5068383;28;20476;-74
2023/05/04 05:59:26;;;;;;;15.63;4.10;;;17.90;87.40;;;;;;5068713;28;20052;-70
2023/05/04 06:01:51;;;;;;;17.53;3.20;;;18.10;88.00;;;;;;5064959;28;20033;-69
2023/05/04 06:04:17;;;;;;;12.80;3.73;;;18.40;87.90;;;;;;5067752;28;20036;-69
2023/05/04 06:06:43;;;;;;;13.30;2.87;;;18.40;85.10;;;;;;5067406;28;20496;-70
2023/05/04 06:09:08;;;;;;;12.20;2.77;;;18.40;86.10;;;;;;5066953;28;20027;-69
2023/05/04 06:11:34;;;;;;;3.53;2.00;;;18.80;84.60;;;;;;5065346;28;20036;-70
2023/05/04 06:14:00;;;;;;;8.93;2.13;;;18.50;86.60;;;;;;5062944;28;20055;-67
2023/05/04 06:16:25;;;;;;;5.07;2.40;;;18.50;85.00;;;;;;5069486;28;20039;-70
2023/05/04 06:18:51;;;;;;;3.60;2.30;;;18.40;84.50;;;;;;5065820;28;20044;-69
2023/05/04 06:21:16;;;;;;;5.13;2.17;;;18.00;86.00;;;;;;5066618;28;20028;-71
2023/05/04 06:23:43;;;;;;;5.73;1.80;;;18.00;86.00;;;;;;5065260;28;20477;-71
2023/05/04 06:26:08;;;;;;;9.82;2.20;;;18.00;86.60;;;;;;5088826;28;20016;-70
2023/05/04 06:28:37;;;;;;;9.47;2.50;;;17.70;86.60;;;;;;5077690;28;20105;-70
2023/05/04 06:31:03;;;;;;;7.40;2.10;;;18.00;86.70;;;;;;5065475;28;20040;-70
2023/05/04 06:33:28;;;;;;;7.30;2.40;;;17.90;87.30;;;;;;5067067;28;20028;-71
2023/05/04 06:35:54;;;;;;;10.57;2.40;;;18.20;87.20;;;;;;5063360;28;20035;-71
2023/05/04 06:38:20;;;;;;;7.37;2.17;;;18.30;86.30;;;;;;5061926;28;20024;-71
2023/05/04 06:40:46;;;;;;;6.65;2.10;;;18.90;84.10;;;;;;5060745;28;20029;-71
2023/05/04 06:43:12;;;;;;;13.43;2.55;;;19.40;82.80;;;;;;5045812;28;20271;-71
2023/05/04 06:45:38;;;;;;;8.27;2.40;;;19.60;80.90;;;;;;5060077;28;20021;-70
2023/05/04 06:48:04;;;;;;;7.35;1.67;;;19.80;82.20;;;;;;5061934;28;20106;-71
2023/05/04 06:50:32;;;;;;;8.40;2.53;;;19.10;82.90;;;;;;5061682;28;20052;-70
2023/05/04 06:53:08;;;;;;;5.10;2.00;;;18.80;82.50;;;;;;5061654;28;20081;-71
2023/05/04 06:55:37;;;;;;;5.37;2.17;;;18.90;84.20;;;;;;5061982;28;20591;-71
2023/05/04 06:58:03;;;;;;;6.47;2.40;;;18.60;83.30;;;;;;5047403;28;20036;-70
2023/05/04 07:00:29;;;;;;;10.30;2.58;;;18.30;86.00;;;;;;5062294;28;20028;-70
2023/05/04 07:02:55;;;;;;;5.28;1.83;;;18.80;84.00;;;;;;5051663;28;20040;-70
2023/05/04 07:05:21;;;;;;;7.82;2.35;;;18.70;83.30;;;;;;5062876;28;20044;-70
2023/05/04 07:07:47;;;;;;;6.25;2.10;;;18.90;85.10;;;;;;5064153;28;20048;-70
2023/05/04 07:10:13;;;;;;;6.80;2.00;;;19.10;84.60;;;;;;5059747;28;20154;-70
2023/05/04 07:12:40;;;;;;;4.30;1.92;;;19.50;84.80;;;;;;5059682;28;20032;-71
2023/05/04 07:15:07;;;;;;;5.65;2.13;;;19.70;83.40;;;;;;5061294;28;20021;-70
2023/05/04 07:17:33;;;;;;;6.05;2.05;;;19.70;83.00;;;;;;5061959;28;20162;-71
2023/05/04 07:20:01;;;;;;;11.68;2.15;;;19.60;80.90;;;;;;5059239;28;20036;-70
2023/05/04 07:22:27;;;;;;;5.53;2.45;;;19.30;84.00;;;;;;5061170;28;20844;-69
2023/05/04 07:24:53;;;;;;;2.87;1.70;;;19.80;84.90;;;;;;5061419;28;20028;-70
2023/05/04 07:27:18;;;;;;;3.10;2.30;;;20.20;79.70;;;;;;5062006;28;20040;-71
2023/05/04 07:29:44;;;;;;;7.80;1.80;;;20.10;79.70;;;;;;5061017;28;20039;-70
2023/05/04 07:32:09;;;;;;;3.13;1.60;;;20.30;77.90;;;;;;5061825;28;20043;-71
2023/05/04 07:34:35;;;;;;;4.30;1.67;;;19.90;84.20;;;;;;5060355;28;20034;-71
2023/05/04 07:37:04;;;;;;;3.00;1.73;;;20.00;82.30;;;;;;5060450;28;20033;-70
2023/05/04 07:39:30;;;;;;;3.72;2.05;;;20.20;80.20;;;;;;5059932;28;20026;-71
2023/05/04 07:41:55;;;;;;;5.47;2.22;;;21.10;79.60;;;;;;5061042;28;20037;-70
2023/05/04 07:44:21;;;;;;;8.43;1.60;;;21.20;77.60;;;;;;5060723;28;20036;-70
2023/05/04 07:46:47;;;;;;;3.27;1.70;;;21.90;76.30;;;;;;5061382;28;20028;-70
2023/05/04 07:49:12;;;;;;;9.03;2.03;;;21.70;76.90;;;;;;5060796;28;20016;-71
2023/05/04 07:51:38;;;;;;;2.97;2.67;;;21.70;74.80;;;;;;5059784;28;20635;-71
2023/05/04 07:54:03;;;;;;;3.67;1.90;;;21.30;76.80;;;;;;5059992;28;20036;-71
2023/05/04 07:56:29;;;;;;;4.97;2.00;;;20.90;76.20;;;;;;5061145;28;20099;-70
2023/05/04 07:58:55;;;;;;;5.43;2.03;;;21.60;76.10;;;;;;5045416;28;20040;-70
2023/05/04 08:01:20;;;;;;;5.20;2.10;;;21.70;73.80;;;;;;5059688;28;20893;-72
2023/05/04 08:03:46;;;;;;;2.47;1.90;;;21.30;75.60;;;;;;5060888;28;20038;-70
2023/05/04 08:06:12;;;;;;;3.92;1.50;;;20.60;77.40;;;;;;5060818;28;20155;-71
2023/05/04 08:08:37;;;;;;;2.40;1.67;;;20.80;76.20;;;;;;5074765;28;20040;-72
2023/05/04 08:11:03;;;;;;;2.45;2.05;;;21.00;76.90;;;;;;5079711;28;20033;-70
2023/05/04 08:13:29;;;;;;;4.70;1.80;;;20.60;75.80;;;;;;5070784;28;20040;-71
2023/05/04 08:15:59;;;;;;;4.83;2.10;;;21.10;76.10;;;;;;5065048;28;20056;-72
2023/05/04 08:18:26;;;;;;;2.38;1.70;;;20.90;75.30;;;;;;5059995;28;20090;-71
2023/05/04 08:20:52;;;;;;;2.20;1.48;;;21.80;74.80;;;;;;5061004;28;20131;-71
2023/05/04 08:23:18;;;;;;;2.22;1.80;;;22.40;75.40;;;;;;5061798;28;20092;-71
2023/05/04 08:25:43;;;;;;;3.40;1.50;;;21.90;72.80;;;;;;5061430;28;20082;-72
2023/05/04 08:28:09;;;;;;;6.63;1.93;;;21.70;74.20;;;;;;5060797;28;20029;-72
2023/05/04 08:30:36;;;;;;;6.35;2.00;;;22.80;74.50;;;;;;5059520;28;20037;-72
2023/05/04 08:33:02;;;;;;;2.72;1.67;;;22.10;72.10;;;;;;5062982;28;20045;-72
2023/05/04 08:35:27;;;;;;;3.60;1.80;;;22.50;69.80;;;;;;5063739;28;20027;-73
2023/05/04 08:37:53;;;;;;;4.23;1.73;;;22.60;74.20;;;;;;5064681;28;20286;-73
2023/05/04 08:40:20;;;;;;;3.70;1.80;;;24.10;69.20;;;;;;5049709;28;20111;-73
2023/05/04 08:42:49;;;;;;;3.55;1.75;;;24.70;67.60;;;;;;5065798;28;20388;-73
2023/05/04 08:45:16;;;;;;;2.20;1.55;;;24.20;66.40;;;;;;5064377;28;20035;-71
2023/05/04 08:47:42;;;;;;;1.70;1.60;;;26.40;63.80;;;;;;5064140;28;20037;-71
2023/05/04 08:50:09;;;;;;;3.45;1.90;;;25.60;64.00;;;;;;5062222;28;20020;-73
2023/05/04 08:52:35;;;;;;;2.65;1.90;;;27.30;62.90;;;;;;5062330;28;20123;-73
2023/05/04 08:55:02;;;;;;;6.15;1.55;;;28.00;58.90;;;;;;5064279;28;20032;-74
2023/05/04 08:57:28;;;;;;;6.47;1.60;;;27.60;59.60;;;;;;5064126;28;20033;-73
2023/05/04 08:59:55;;;;;;;2.85;1.80;;;27.30;61.30;;;;;;5064837;28;20075;-73
2023/05/04 09:02:22;;;;;;;5.45;1.42;;;28.90;60.00;;;;;;5063872;28;20111;-73
2023/05/04 09:04:52;;;;;;;16.38;1.80;;;26.70;57.30;;;;;;5063341;28;20021;-71
2023/05/04 09:07:19;;;;;;;6.20;1.60;;;25.80;63.00;;;;;;5065703;28;20029;-73
2023/05/04 09:09:46;;;;;;;4.03;1.55;;;26.10;58.70;;;;;;5064079;28;20484;-72
2023/05/04 09:12:12;;;;;;;3.35;1.23;;;26.10;62.10;;;;;;5065542;28;20072;-73
2023/05/04 09:14:40;;;;;;;1.88;1.25;;;26.90;57.40;;;;;;5065569;28;20048;-73
2023/05/04 09:17:16;;;;;;;2.25;1.50;;;29.10;55.70;;;;;;5064800;28;20534;-72
2023/05/04 09:19:45;;;;;;;3.65;1.33;;;30.00;57.90;;;;;;5062259;28;20036;-73
2023/05/04 09:22:18;;;;;;;3.83;1.30;;;31.50;54.90;;;;;;5048540;28;20047;-73
2023/05/04 09:24:45;;;;;;;2.60;1.73;;;29.40;52.70;;;;;;5066106;28;20324;-74
2023/05/04 09:27:13;;;;;;;4.32;1.50;;;28.60;54.40;;;;;;5046535;28;20039;-73
2023/05/04 09:29:41;;;;;;;9.88;1.33;;;30.00;53.90;;;;;;5065300;28;20028;-74
2023/05/04 09:32:11;;;;;;;7.60;1.58;;;30.20;51.20;;;;;;5049209;28;20060;-73
2023/05/04 09:34:45;;;;;;;5.28;1.50;;;31.60;51.10;;;;;;5062300;28;20071;-72
2023/05/04 09:37:11;;;;;;;11.13;1.80;;;32.30;51.80;;;;;;5064586;28;20028;-74
2023/05/04 09:39:36;;;;;;;;;;;30.90;52.20;;;;;;5065012;28;20396;-73
2023/05/04 09:42:04;;;;;;;2.65;1.10;;;31.50;49.00;;;;;;5062532;28;20527;-74
2023/05/04 09:44:31;;;;;;;3.95;1.15;;;31.50;48.50;;;;;;5063000;28;20427;-72
2023/05/04 09:46:58;;;;;;;12.38;2.63;;;32.20;48.60;;;;;;5062412;28;20051;-72
2023/05/04 09:49:34;;;;;;;5.20;1.02;;;31.20;48.70;;;;;;5062085;28;20236;-71
2023/05/04 09:52:01;;;;;;;7.07;1.58;;;32.70;48.80;;;;;;5075850;28;20467;-73
2023/05/04 09:54:33;;;;;;;2.70;1.52;;;33.20;48.10;;;;;;5079712;28;20097;-73
2023/05/04 09:57:21;;;;;;;2.38;1.08;;;33.50;47.40;;;;;;5075750;28;20033;-75
2023/05/04 09:59:47;;;;;;;4.13;0.93;;;32.80;47.40;;;;;;5063724;28;20082;-73
2023/05/04 10:02:13;;;;;;;1.80;0.95;;;32.00;48.20;;;;;;5060904;28;20037;-72
2023/05/04 10:04:42;;;;;;;6.78;1.35;;;32.80;47.60;;;;;;5047843;28;20134;-73
2023/05/04 10:07:08;;;;;;;1.30;1.15;;;32.70;45.60;;;;;;5062622;28;20042;-71
2023/05/04 10:09:33;;;;;;;6.78;1.67;;;32.40;46.90;;;;;;5063163;28;20055;-72
2023/05/04 10:12:02;;;;;;;3.38;1.30;;;32.90;49.40;;;;;;5049776;28;20062;-73
2023/05/04 10:14:33;;;;;;;8.90;1.48;;;35.70;47.50;;;;;;5061385;28;20811;-72
2023/05/04 10:17:16;;;;;;;3.70;1.10;;;34.40;46.70;;;;;;5061783;28;20035;-70
2023/05/04 10:19:57;;;;;;;4.43;1.10;;;34.80;46.50;;;;;;5062817;28;20043;-71
2023/05/04 10:22:54;;;;;;;14.82;1.42;;;34.90;44.40;;;;;;5080458;28;20477;-73
2023/05/04 10:25:34;;;;;;;3.65;1.00;;;34.30;45.20;;;;;;5060730;28;20032;-72
2023/05/04 10:28:03;;;;;;;1.73;0.98;;;35.00;45.00;;;;;;5061676;28;20047;-72
2023/05/04 10:30:29;;;;;;;4.13;0.90;;;34.10;44.70;;;;;;5062520;28;20032;-71
2023/05/04 10:32:56;;;;;;;3.95;1.20;;;33.50;46.10;;;;;;5062631;28;20044;-70
2023/05/04 10:35:22;;;;;;;8.82;1.02;;;32.90;45.60;;;;;;5061483;28;20023;-71
2023/05/04 10:37:53;;;;;;;1.30;1.08;;;33.20;46.00;;;;;;5064506;28;20512;-72
2023/05/04 10:40:38;;;;;;;8.10;1.02;;;32.90;46.50;;;;;;5063456;28;20029;-71
2023/05/04 10:43:04;;;;;;;8.32;1.15;;;29.50;47.50;;;;;;5061520;28;20028;-71
2023/05/04 10:45:36;;;;;;;;;;;27.60;50.90;;;;;;5062308;28;20508;-72
2023/05/04 10:48:03;;;;;;;3.33;1.45;;;27.30;50.10;;;;;;5061510;28;20646;-73
2023/05/04 10:50:49;;;;;;;5.43;1.40;;;27.10;51.00;;;;;;5062495;28;20107;-73
2023/05/04 10:53:16;;;;;;;2.60;0.80;;;26.70;51.20;;;;;;5060089;28;20044;-71
2023/05/04 10:55:44;;;;;;;6.38;1.00;;;26.40;51.30;;;;;;5059562;28;20530;-72
2023/05/04 10:58:15;;;;;;;2.20;0.85;;;26.10;51.00;;;;;;5062748;28;20115;-72
2023/05/04 11:00:43;;;;;;;9.45;1.55;;;26.00;52.30;;;;;;5061322;28;20024;-72
2023/05/04 11:03:10;;;;;;;13.60;1.10;;;26.10;50.50;;;;;;5048551;28;20139;-72
2023/05/04 11:05:43;;;;;;;10.13;1.20;;;25.70;52.30;;;;;;5065209;28;20032;-73
2023/05/04 11:08:23;;;;;;;10.00;1.40;;;25.60;52.40;;;;;;5064858;28;20328;-71
2023/05/04 11:11:02;;;;;;;7.25;1.20;;;25.30;51.20;;;;;;5064101;28;20808;-74
2023/05/04 11:13:33;;;;;;;4.75;1.00;;;25.60;53.10;;;;;;5063005;28;20028;-72
2023/05/04 11:15:59;;;;;;;8.80;1.17;;;25.70;52.10;;;;;;5066533;28;20887;-72
2023/05/04 11:28:57;;;;;;;2.65;1.13;;;25.60;52.20;;;;;;5035716;28;20135;-72
2023/05/04 11:31:22;;;;;;;12.50;1.30;;;25.70;53.80;;;;;;5023084;28;20545;-71
2023/05/04 11:33:50;;;;;;;6.22;1.25;;;26.20;53.50;;;;;;5029821;28;20053;-71
2023/05/04 11:36:16;;;;;;;8.38;2.25;;;25.60;53.40;;;;;;5025982;28;20034;-72
2023/05/04 11:38:42;;;;;;;1.48;1.08;;;25.80;54.80;;;;;;5026512;28;20034;-72
2023/05/04 11:41:08;;;;;;;6.53;1.30;;;25.90;54.00;;;;;;5042340;28;20030;-71
2023/05/04 11:43:36;;;;;;;11.00;1.30;;;25.70;53.70;;;;;;5037862;28;20096;-72
2023/05/04 11:46:03;;;;;;;13.23;1.80;;;24.90;52.90;;;;;;5020356;28;20477;-72
2023/05/04 11:48:31;;;;;;;12.50;2.42;;;24.70;53.50;;;;;;5034642;28;20025;-72
2023/05/04 11:50:57;;;;;;;6.97;1.20;;;25.00;54.90;;;;;;5019854;28;20049;-73
2023/05/04 11:53:23;;;;;;;4.03;1.20;;;25.20;54.70;;;;;;5029274;28;20494;-72
2023/05/04 11:55:51;;;;;;;13.98;1.85;;;25.20;54.30;;;;;;5030893;28;20072;-72
2023/05/04 11:58:23;;;;;;;6.40;1.20;;;24.90;53.80;;;;;;5027356;28;20076;-72
2023/05/04 12:00:54;;;;;;;6.75;1.40;;;25.20;54.50;;;;;;5023738;28;20278;-73
2023/05/04 12:03:28;;;;;;;5.15;1.33;;;25.70;54.70;;;;;;5027686;28;20041;-72
2023/05/04 12:05:55;;;;;;;2.92;1.27;;;25.60;55.60;;;;;;5020523;28;20032;-71
2023/05/04 12:08:25;;;;;;;5.28;1.20;;;25.40;55.00;;;;;;5021868;28;20038;-72
2023/05/04 12:11:11;;;;;;;5.82;1.70;;;25.50;54.40;;;;;;5016948;28;20029;-73
2023/05/04 12:13:39;;;;;;;11.20;1.42;;;25.40;54.40;;;;;;5025902;28;20042;-72
2023/05/04 12:16:15;;;;;;;4.32;1.75;;;25.40;54.70;;;;;;5026115;28;20029;-72
2023/05/04 12:18:43;;;;;;;3.50;1.10;;;25.20;53.90;;;;;;5021835;28;20061;-72
2023/05/04 12:21:17;;;;;;;9.50;1.33;;;25.20;54.30;;;;;;5023446;28;20128;-72
2023/05/04 12:23:44;;;;;;;4.57;1.80;;;25.50;52.80;;;;;;5019322;28;20103;-71
2023/05/04 12:26:11;;;;;;;8.88;1.33;;;25.00;52.50;;;;;;5026412;28;20056;-72
2023/05/04 12:28:38;;;;;;;5.85;1.50;;;24.70;52.60;;;;;;5020033;28;20034;-71
2023/05/04 12:31:05;;;;;;;5.75;1.30;;;24.80;53.90;;;;;;5014032;28;20041;-72
2023/05/04 12:33:31;;;;;;;4.55;1.40;;;24.90;53.60;;;;;;5010184;28;20498;-72
2023/05/04 12:35:59;;;;;;;3.45;1.52;;;25.20;53.80;;;;;;5011577;28;20037;-71
2023/05/04 12:38:25;;;;;;;23.50;1.58;;;25.00;53.50;;;;;;5013272;28;20046;-72
2023/05/04 12:40:51;;;;;;;3.53;1.27;;;24.70;53.20;;;;;;5010626;28;20030;-74
2023/05/04 12:43:18;;;;;;;5.88;1.63;;;24.60;54.00;;;;;;5019255;28;20139;-71
2023/05/04 12:45:44;;;;;;;6.18;1.50;;;24.50;53.10;;;;;;5014643;28;20076;-71
2023/05/04 12:48:10;;;;;;;1.80;1.08;;;25.20;57.10;;;;;;5012439;28;20053;-73
2023/05/04 12:50:35;;;;;;;2.47;1.40;;;25.40;53.40;;;;;;5009790;28;20030;-72
2023/05/04 12:53:03;;;;;;;7.00;1.10;;;25.30;53.80;;;;;;5008944;28;20025;-72
2023/05/04 12:55:30;;;;;;;3.60;1.20;;;24.90;53.10;;;;;;5006665;28;20033;-71